createdAt,value
2023-04-14T00:01:43.370Z,100.00
2023-04-14T00:04:15.102Z,100.00
2023-04-14T00:06:46.734Z,100.00
2023-04-14T00:09:18.542Z,100.00
2023-04-14T00:11:49.999Z,100.00
2023-04-14T00:14:21.828Z,100.00
2023-04-14T00:16:53.416Z,100.00
2023-04-14T00:19:25.257Z,100.00
2023-04-14T00:21:56.729Z,100.00
2023-04-14T00:24:28.531Z,100.00
2023-04-14T00:26:59.988Z,100.00
2023-04-14T00:29:31.481Z,100.00
2023-04-14T00:32:02.974Z,100.00
2023-04-14T00:34:34.486Z,100.00
2023-04-14T00:37:05.956Z,100.00
2023-04-14T00:39:37.800Z,100.00
2023-04-14T00:42:09.274Z,100.00
2023-04-14T00:44:41.155Z,100.00
2023-04-14T00:47:12.616Z,100.00
2023-04-14T00:49:44.529Z,100.00
2023-04-14T00:52:16.000Z,100.00
2023-04-14T00:54:47.494Z,100.00
2023-04-14T00:57:18.985Z,100.00
2023-04-14T00:59:50.772Z,100.00
2023-04-14T01:02:22.442Z,100.00
2023-04-14T01:04:54.975Z,100.00
2023-04-14T01:07:26.584Z,100.00
2023-04-14T01:09:58.423Z,100.00
2023-04-14T01:12:29.950Z,100.00
2023-04-14T01:15:01.660Z,100.00
2023-04-14T01:17:33.149Z,100.00
2023-04-14T01:20:05.167Z,100.00
2023-04-14T01:22:36.663Z,100.00
2023-04-14T01:25:08.178Z,100.00
2023-04-14T01:27:39.672Z,100.00
2023-04-14T01:30:11.460Z,100.00
2023-04-14T01:32:43.010Z,100.00
2023-04-14T01:35:14.915Z,100.00
2023-04-14T01:37:46.420Z,100.00
2023-04-14T01:40:18.235Z,100.00
2023-04-14T01:42:49.704Z,100.00
2023-04-14T01:45:21.420Z,100.00
2023-04-14T01:47:52.945Z,100.00
2023-04-14T01:50:24.920Z,100.00
2023-04-14T01:52:56.382Z,100.00
2023-04-14T01:55:28.174Z,100.00
2023-04-14T01:57:59.652Z,100.00
2023-04-14T02:00:31.172Z,100.00
2023-04-14T02:03:02.765Z,100.00
2023-04-14T02:05:34.319Z,100.00
2023-04-14T02:08:05.778Z,100.00
2023-04-14T02:10:37.809Z,100.00
2023-04-14T02:13:09.270Z,100.00
2023-04-14T02:15:40.991Z,100.00
2023-04-14T02:18:12.810Z,100.00
2023-04-14T02:20:44.282Z,100.00
2023-04-14T02:23:15.957Z,100.00
2023-04-14T02:25:47.419Z,100.00
2023-04-14T02:28:19.431Z,100.00
2023-04-14T02:30:50.902Z,100.00
2023-04-14T02:33:22.757Z,100.00
2023-04-14T02:35:54.210Z,99.90
2023-04-14T02:38:26.023Z,98.37
2023-04-14T02:40:57.495Z,98.61
2023-04-14T02:43:28.988Z,98.33
2023-04-14T02:46:00.501Z,97.79
2023-04-14T02:48:32.062Z,99.02
2023-04-14T02:51:03.535Z,97.97
2023-04-14T02:53:35.041Z,97.92
2023-04-14T02:56:06.513Z,97.51
2023-04-14T02:58:38.357Z,97.09
2023-04-14T03:01:09.914Z,98.03
2023-04-14T03:03:41.754Z,98.09
2023-04-14T03:06:13.220Z,98.79
2023-04-14T03:08:44.836Z,99.06
2023-04-14T03:11:16.302Z,99.16
2023-04-14T03:13:48.127Z,99.88
2023-04-14T03:16:19.655Z,100.00
2023-04-14T03:18:51.438Z,100.00
2023-04-14T03:21:22.888Z,100.00
2023-04-14T03:23:54.676Z,100.00
2023-04-14T03:26:26.115Z,100.00
2023-04-14T03:28:57.967Z,100.00
2023-04-14T03:31:29.506Z,100.00
2023-04-14T03:34:01.325Z,100.00
2023-04-14T03:36:32.797Z,100.00
2023-04-14T03:39:04.640Z,100.00
2023-04-14T03:41:36.142Z,100.00
2023-04-14T03:44:08.015Z,100.00
2023-04-14T03:46:39.520Z,100.00
2023-04-14T03:49:11.713Z,100.00
2023-04-14T03:51:43.202Z,100.00
2023-04-14T03:54:15.060Z,100.00
2023-04-14T03:56:46.514Z,100.00
2023-04-14T03:59:18.271Z,100.00
2023-04-14T04:01:49.806Z,100.00
2023-04-14T04:04:21.727Z,100.00
2023-04-14T04:06:53.277Z,100.00
2023-04-14T04:09:25.105Z,100.00
2023-04-14T04:11:56.565Z,100.00
2023-04-14T04:14:28.413Z,100.00
2023-04-14T04:16:59.959Z,100.00
2023-04-14T04:19:31.448Z,100.00
2023-04-14T04:22:02.920Z,100.00
2023-04-14T04:24:34.439Z,100.00
2023-04-14T04:27:09.868Z,100.00
2023-04-14T04:29:46.700Z,100.00
2023-04-14T04:32:18.220Z,100.00
2023-04-14T04:34:50.116Z,100.00
2023-04-14T04:37:21.582Z,100.00
2023-04-14T04:39:53.230Z,100.00
2023-04-14T04:42:24.711Z,100.00
2023-04-14T04:44:56.521Z,100.00
2023-04-14T04:47:28.133Z,100.00
2023-04-14T04:50:00.004Z,100.00
2023-04-14T04:52:31.473Z,100.00
2023-04-14T04:55:03.303Z,100.00
2023-04-14T04:57:34.769Z,100.00
2023-04-14T05:00:06.545Z,100.00
2023-04-14T05:02:38.057Z,100.00
2023-04-14T05:05:09.962Z,100.00
2023-04-14T05:07:41.447Z,100.00
2023-04-14T05:10:13.405Z,100.00
2023-04-14T05:12:44.899Z,100.00
2023-04-14T05:15:16.551Z,100.00
2023-04-14T05:17:48.028Z,100.00
2023-04-14T05:20:19.844Z,100.00
2023-04-14T05:22:51.317Z,100.00
2023-04-14T05:25:23.093Z,100.00
2023-04-14T05:27:54.962Z,100.00
2023-04-14T05:30:26.456Z,100.00
2023-04-14T05:32:58.381Z,100.00
2023-04-14T05:35:29.862Z,100.00
2023-04-14T05:38:01.691Z,100.00
2023-04-14T05:40:33.177Z,100.00
2023-04-14T05:43:04.666Z,100.00
2023-04-14T05:45:36.130Z,100.00
2023-04-14T05:48:08.060Z,100.00
2023-04-14T05:50:39.531Z,100.00
2023-04-14T05:53:11.339Z,100.00
2023-04-14T05:55:42.806Z,100.00
2023-04-14T05:58:14.576Z,100.00
2023-04-14T06:00:46.037Z,100.00
2023-04-14T06:03:17.985Z,100.00
2023-04-14T06:05:49.605Z,100.00
2023-04-14T06:08:21.450Z,100.00
2023-04-14T06:10:53.026Z,100.00
2023-04-14T06:13:24.713Z,100.00
2023-04-14T06:18:27.793Z,100.00
2023-04-14T06:20:59.267Z,100.00
2023-04-14T06:23:30.765Z,100.00
2023-04-14T06:26:02.266Z,100.00
2023-04-14T06:28:33.742Z,100.00
2023-04-14T06:31:05.230Z,100.00
2023-04-14T06:33:37.139Z,100.00
2023-04-14T06:36:08.620Z,100.00
2023-04-14T06:38:40.120Z,100.00
2023-04-14T06:41:11.588Z,100.00
2023-04-14T06:43:43.406Z,100.00
2023-04-14T06:46:14.906Z,100.00
2023-04-14T06:48:46.785Z,100.00
2023-04-14T06:51:18.257Z,100.00
2023-04-14T06:53:50.142Z,100.00
2023-04-14T06:56:21.616Z,100.00
2023-04-14T06:58:53.552Z,100.00
2023-04-14T07:01:25.120Z,100.00
2023-04-14T07:03:56.686Z,100.00
2023-04-14T07:06:28.189Z,100.00
2023-04-14T07:08:59.815Z,100.00
2023-04-14T07:11:31.274Z,100.00
2023-04-14T07:14:03.077Z,100.00
2023-04-14T07:16:34.875Z,100.00
2023-04-14T07:19:06.652Z,100.00
2023-04-14T07:21:38.133Z,100.00
2023-04-14T07:24:09.945Z,100.00
2023-04-14T07:26:41.399Z,100.00
2023-04-14T07:29:13.012Z,100.00
2023-04-14T07:31:44.556Z,100.00
2023-04-14T07:34:16.208Z,100.00
2023-04-14T07:36:47.683Z,99.78
2023-04-14T07:39:23.721Z,99.57
2023-04-14T07:41:55.383Z,98.50
2023-04-14T07:44:26.957Z,98.96
2023-04-14T07:46:58.424Z,99.35
2023-04-14T07:49:29.917Z,99.15
2023-04-14T07:52:01.441Z,98.64
2023-04-14T07:57:14.330Z,100.00
2023-04-14T07:59:45.806Z,99.71
2023-04-14T08:02:17.398Z,100.00
2023-04-14T08:04:49.245Z,100.00
2023-04-14T08:07:20.729Z,100.00
2023-04-14T08:09:52.455Z,100.00
2023-04-14T08:12:23.944Z,100.00
2023-04-14T08:14:55.754Z,100.00
2023-04-14T08:17:27.242Z,100.00
2023-04-14T08:19:59.079Z,100.00
2023-04-14T08:22:30.549Z,100.00
2023-04-14T08:25:02.263Z,100.00
2023-04-14T08:27:33.731Z,100.00
2023-04-14T08:30:05.435Z,100.00
2023-04-14T08:32:36.948Z,100.00
2023-04-14T08:35:37.436Z,100.00
2023-04-14T08:38:00.700Z,100.00
2023-04-14T08:40:32.180Z,100.00
2023-04-14T08:43:03.847Z,100.00
2023-04-14T08:45:35.336Z,100.00
2023-04-14T08:48:07.374Z,100.00
2023-04-14T08:50:38.854Z,100.00
2023-04-14T08:53:10.718Z,100.00
2023-04-14T08:55:42.240Z,100.00
2023-04-14T08:58:14.128Z,100.00
2023-04-14T09:00:45.623Z,100.00
2023-04-14T09:03:17.684Z,100.00
2023-04-14T09:05:49.282Z,100.00
2023-04-14T09:08:21.061Z,100.00
2023-04-14T09:10:52.557Z,100.00
2023-04-14T09:13:24.258Z,100.00
2023-04-14T09:15:55.724Z,100.00
2023-04-14T09:18:28.157Z,100.00
2023-04-14T09:21:50.896Z,100.00
2023-04-14T09:23:51.690Z,100.00
2023-04-14T09:26:23.154Z,100.00
2023-04-14T09:28:55.041Z,100.00
2023-04-14T09:31:26.518Z,100.00
2023-04-14T09:33:58.450Z,100.00
2023-04-14T09:36:29.967Z,100.00
2023-04-14T09:39:01.697Z,100.00
2023-04-14T09:41:33.167Z,100.00
2023-04-14T09:44:04.782Z,100.00
2023-04-14T09:46:36.268Z,100.00
2023-04-14T09:49:08.019Z,100.00
2023-04-14T09:51:39.520Z,100.00
2023-04-14T09:54:11.253Z,100.00
2023-04-14T09:56:42.714Z,100.00
2023-04-14T09:59:14.351Z,100.00
2023-04-14T10:01:45.895Z,100.00
2023-04-14T10:04:17.470Z,100.00
2023-04-14T10:06:48.952Z,100.00
2023-04-14T10:09:20.582Z,100.00
2023-04-14T10:11:52.039Z,100.00
2023-04-14T10:14:23.642Z,100.00
2023-04-14T10:16:55.090Z,100.00
2023-04-14T10:19:26.707Z,100.00
2023-04-14T10:21:58.197Z,100.00
2023-04-14T10:24:29.717Z,100.00
2023-04-14T10:27:01.166Z,100.00
2023-04-14T10:29:32.652Z,100.00
2023-04-14T10:32:04.188Z,100.00
2023-04-14T10:34:35.674Z,100.00
2023-04-14T10:37:07.130Z,100.00
2023-04-14T10:39:38.608Z,100.00
2023-04-14T10:42:10.071Z,100.00
2023-04-14T10:44:41.708Z,100.00
2023-04-14T10:47:13.254Z,100.00
2023-04-14T10:49:44.904Z,100.00
2023-04-14T10:52:16.350Z,100.00
2023-04-14T10:54:48.349Z,100.00
2023-04-14T10:57:19.840Z,100.00
2023-04-14T10:59:51.696Z,100.00
2023-04-14T11:02:23.346Z,100.00
2023-04-14T11:04:55.313Z,100.00
2023-04-14T11:07:26.813Z,100.00
2023-04-14T11:09:58.640Z,100.00
2023-04-14T11:12:30.090Z,100.00
2023-04-14T11:15:01.923Z,100.00
2023-04-14T11:17:33.477Z,100.00
2023-04-14T11:20:05.281Z,100.00
2023-04-14T11:22:36.733Z,100.00
2023-04-14T11:25:08.562Z,100.00
2023-04-14T11:27:40.049Z,100.00
2023-04-14T11:30:11.492Z,100.00
2023-04-14T11:32:43.325Z,100.00
2023-04-14T11:35:14.802Z,100.00
2023-04-14T11:37:46.661Z,100.00
2023-04-14T11:40:18.120Z,100.00
2023-04-14T11:42:49.737Z,100.00
2023-04-14T11:45:21.204Z,100.00
2023-04-14T11:47:53.053Z,100.00
2023-04-14T11:50:24.525Z,100.00
2023-04-14T11:52:55.989Z,100.00
2023-04-14T11:55:27.536Z,100.00
2023-04-14T11:57:59.383Z,100.00
2023-04-14T12:00:31.850Z,100.00
2023-04-14T12:03:03.887Z,100.00
2023-04-14T12:05:35.699Z,100.00
2023-04-14T12:08:07.713Z,100.00
2023-04-14T12:10:39.228Z,100.00
2023-04-14T12:13:10.952Z,100.00
2023-04-14T12:15:42.577Z,100.00
2023-04-14T12:18:14.721Z,100.00
2023-04-14T12:20:46.214Z,100.00
2023-04-14T12:23:18.041Z,100.00
2023-04-14T12:25:49.525Z,100.00
2023-04-14T12:28:21.376Z,100.00
2023-04-14T12:30:52.824Z,100.00
2023-04-14T12:33:24.493Z,100.00
2023-04-14T12:35:55.981Z,100.00
2023-04-14T12:38:27.740Z,100.00
2023-04-14T12:40:59.291Z,100.00
2023-04-14T12:43:31.056Z,100.00
2023-04-14T12:46:02.492Z,100.00
2023-04-14T12:48:34.270Z,100.00
2023-04-14T12:51:05.726Z,100.00
2023-04-14T12:53:37.523Z,100.00
2023-04-14T12:56:08.964Z,100.00
2023-04-14T12:58:40.790Z,100.00
2023-04-14T13:12:22.124Z,100.00
2023-04-14T13:15:04.050Z,100.00
2023-04-14T13:17:35.708Z,100.00
2023-04-14T13:20:07.811Z,100.00
2023-04-14T13:22:39.305Z,100.00
2023-04-14T13:25:11.140Z,100.00
2023-04-14T13:27:42.918Z,100.00
2023-04-14T13:30:14.363Z,100.00
2023-04-14T13:32:46.239Z,100.00
2023-04-14T13:35:17.767Z,100.00
2023-04-14T13:37:51.455Z,100.00
2023-04-14T13:40:22.943Z,100.00
2023-04-14T13:42:54.403Z,100.00
2023-04-14T13:45:25.876Z,100.00
2023-04-14T13:47:57.781Z,100.00
2023-04-14T13:50:29.271Z,100.00
2023-04-14T13:53:01.049Z,100.00
2023-04-14T13:55:32.552Z,100.00
2023-04-14T13:58:04.327Z,100.00
2023-04-14T14:00:35.810Z,100.00
2023-04-14T14:03:07.696Z,100.00
2023-04-14T14:05:39.311Z,100.00
2023-04-14T14:08:11.102Z,100.00
2023-04-14T14:13:18.563Z,100.00
2023-04-14T14:15:50.242Z,100.00
2023-04-14T14:18:22.037Z,100.00
2023-04-14T14:20:53.603Z,100.00
2023-04-14T14:23:25.473Z,100.00
2023-04-14T14:25:56.919Z,100.00
2023-04-14T14:28:28.720Z,100.00
2023-04-14T14:31:00.228Z,100.00
2023-04-14T14:33:32.007Z,100.00
2023-04-14T14:36:03.455Z,100.00
2023-04-14T14:38:35.231Z,100.00
2023-04-14T14:41:06.734Z,100.00
2023-04-14T14:43:38.203Z,100.00
2023-04-14T14:46:09.704Z,100.00
2023-04-14T14:48:41.506Z,100.00
2023-04-14T14:51:12.960Z,100.00
2023-04-14T14:53:44.730Z,100.00
2023-04-14T14:56:16.203Z,100.00
2023-04-14T14:58:48.052Z,100.00
2023-04-14T15:01:19.543Z,100.00
2023-04-14T15:03:51.108Z,100.00
2023-04-14T15:06:22.609Z,100.00
2023-04-14T15:08:54.091Z,100.00
2023-04-14T15:11:25.566Z,100.00
2023-04-14T15:13:57.051Z,100.00
2023-04-14T15:16:28.544Z,100.00
2023-04-14T15:19:00.259Z,100.00
2023-04-14T15:21:31.719Z,100.00
2023-04-14T15:24:03.776Z,100.00
2023-04-14T15:26:35.508Z,100.00
2023-04-14T15:29:07.550Z,100.00
2023-04-14T15:31:39.073Z,100.00
2023-04-14T15:34:10.884Z,100.00
2023-04-14T15:36:42.344Z,100.00
2023-04-14T15:39:14.454Z,100.00
2023-04-14T15:41:47.977Z,100.00
2023-04-14T15:44:19.464Z,100.00
2023-04-14T15:46:50.976Z,100.00
2023-04-14T15:49:22.722Z,100.00
2023-04-14T15:51:54.460Z,100.00
2023-04-14T15:54:27.466Z,100.00
2023-04-14T15:56:58.937Z,100.00
2023-04-14T15:59:30.708Z,100.00
2023-04-14T16:02:02.171Z,100.00
2023-04-14T16:04:34.084Z,100.00
2023-04-14T16:07:05.655Z,100.00
2023-04-14T16:09:37.499Z,100.00
2023-04-14T16:12:08.970Z,100.00
2023-04-14T16:14:40.808Z,100.00
2023-04-14T16:17:12.277Z,100.00
2023-04-14T16:19:44.065Z,100.00
2023-04-14T16:22:15.521Z,100.00
2023-04-14T16:24:46.994Z,100.00
2023-04-14T16:27:18.508Z,100.00
2023-04-14T16:29:49.985Z,100.00
2023-04-14T16:32:21.737Z,100.00
2023-04-14T16:34:53.275Z,100.00
2023-04-14T16:37:25.097Z,100.00
2023-04-14T16:39:56.570Z,100.00
2023-04-14T16:42:28.399Z,100.00
2023-04-14T16:44:59.858Z,100.00
2023-04-14T16:47:31.607Z,100.00
2023-04-14T16:50:03.143Z,100.00
2023-04-14T16:52:34.633Z,100.00
2023-04-14T16:55:06.097Z,100.00
2023-04-14T16:57:37.569Z,100.00
2023-04-14T17:00:09.033Z,100.00
2023-04-14T17:02:40.775Z,100.00
2023-04-14T17:05:12.502Z,100.00
2023-04-14T17:07:44.139Z,100.00
2023-04-14T17:10:15.583Z,100.00
2023-04-14T17:12:47.112Z,100.00
2023-04-14T17:15:18.600Z,100.00
2023-04-14T17:17:50.162Z,100.00
2023-04-14T17:20:21.694Z,100.00
2023-04-14T17:22:53.437Z,100.00
2023-04-14T17:25:24.933Z,100.00
2023-04-14T17:27:56.429Z,100.00
2023-04-14T17:30:27.901Z,100.00
2023-04-14T17:32:59.704Z,100.00
2023-04-14T17:35:31.187Z,100.00
2023-04-14T17:38:02.668Z,100.00
2023-04-14T17:40:34.148Z,100.00
2023-04-14T17:43:05.878Z,100.00
2023-04-14T17:45:37.492Z,100.00
2023-04-14T17:48:09.217Z,100.00
2023-04-14T17:50:40.742Z,100.00
2023-04-14T17:53:12.242Z,100.00
2023-04-14T17:55:43.802Z,100.00
2023-04-14T17:58:15.601Z,100.00
2023-04-14T18:00:47.054Z,100.00
2023-04-14T18:03:18.662Z,100.00
2023-04-14T18:05:50.180Z,100.00
2023-04-14T18:08:22.021Z,100.00
2023-04-14T18:10:53.490Z,100.00
2023-04-14T18:13:25.034Z,100.00
2023-04-14T18:15:56.494Z,100.00
2023-04-14T18:18:28.416Z,100.00
2023-04-14T18:20:59.881Z,100.00
2023-04-14T18:23:31.682Z,100.00
2023-04-14T18:28:38.102Z,100.00
2023-04-14T18:31:10.700Z,100.00
2023-04-14T18:33:43.329Z,100.00
2023-04-14T18:36:14.830Z,100.00
2023-04-14T18:38:46.619Z,100.00
2023-04-14T18:41:18.075Z,100.00
2023-04-14T18:43:49.634Z,100.00
2023-04-14T18:46:21.165Z,100.00
2023-04-14T18:48:52.682Z,100.00
2023-04-14T18:51:24.154Z,100.00
2023-04-14T18:53:55.656Z,100.00
2023-04-14T18:56:27.131Z,100.00
2023-04-14T18:58:58.744Z,100.00
2023-04-14T19:01:30.398Z,100.00
2023-04-14T19:04:02.073Z,100.00
2023-04-14T19:06:33.680Z,100.00
2023-04-14T19:09:05.603Z,100.00
2023-04-14T19:11:37.095Z,100.00
2023-04-14T19:14:08.936Z,100.00
2023-04-14T19:16:40.407Z,100.00
2023-04-14T19:19:12.184Z,100.00
2023-04-14T19:21:43.626Z,100.00
2023-04-14T19:24:15.420Z,100.00
2023-04-14T19:26:46.915Z,100.00
2023-04-14T19:29:18.743Z,100.00
2023-04-14T19:31:50.205Z,100.00
2023-04-14T19:34:21.706Z,100.00
2023-04-14T19:36:53.151Z,100.00
2023-04-14T19:39:24.873Z,100.00
2023-04-14T19:41:56.376Z,100.00
2023-04-14T19:44:28.198Z,100.00
2023-04-14T19:46:59.700Z,100.00
2023-04-14T19:49:31.585Z,100.00
2023-04-14T19:52:03.572Z,100.00
2023-04-14T19:54:35.020Z,100.00
2023-04-14T19:57:06.514Z,100.00
2023-04-14T19:59:38.024Z,100.00
2023-04-14T20:02:09.880Z,100.00
2023-04-14T20:04:41.478Z,100.00
2023-04-14T20:07:13.178Z,100.00
2023-04-14T20:09:44.676Z,100.00
2023-04-14T20:12:16.543Z,100.00
2023-04-14T20:14:47.995Z,100.00
2023-04-14T20:17:19.870Z,100.00
2023-04-14T20:19:51.366Z,100.00
2023-04-14T20:22:23.165Z,100.00
2023-04-14T20:24:54.629Z,100.00
2023-04-14T20:27:26.267Z,100.00
2023-04-14T20:29:57.769Z,100.00
2023-04-14T20:32:29.586Z,100.00
2023-04-14T20:35:01.027Z,100.00
2023-04-14T20:37:32.908Z,100.00
2023-04-14T20:40:04.346Z,100.00
2023-04-14T20:42:36.049Z,100.00
2023-04-14T20:45:07.507Z,100.00
2023-04-14T20:47:39.325Z,100.00
2023-04-14T20:50:10.816Z,100.00
2023-04-14T20:52:42.720Z,100.00
2023-04-14T20:55:14.202Z,100.00
2023-04-14T20:57:45.688Z,100.00
2023-04-14T21:00:17.167Z,100.00
2023-04-14T21:02:49.107Z,100.00
2023-04-14T21:05:20.663Z,100.00
2023-04-14T21:07:52.123Z,100.00
2023-04-14T21:10:23.938Z,100.00
2023-04-14T21:15:24.700Z,100.00
2023-04-14T21:15:54.296Z,100.00
2023-04-14T21:18:28.244Z,100.00
2023-04-14T21:20:59.762Z,100.00
2023-04-14T21:23:31.230Z,100.00
2023-04-14T21:26:03.106Z,100.00
2023-04-14T21:28:34.572Z,100.00
2023-04-14T21:31:06.092Z,100.00
2023-04-14T21:33:37.639Z,100.00
2023-04-14T21:36:09.433Z,100.00
2023-04-14T21:38:40.928Z,100.00
2023-04-14T21:41:12.741Z,100.00
2023-04-14T21:43:44.192Z,100.00
2023-04-14T21:46:16.095Z,100.00
2023-04-14T21:48:47.619Z,100.00
2023-04-14T21:51:19.107Z,100.00
2023-04-14T21:53:50.569Z,100.00
2023-04-14T21:56:22.047Z,100.00
2023-04-14T21:58:53.513Z,100.00
2023-04-14T22:01:25.253Z,100.00
2023-04-14T22:03:56.832Z,100.00
2023-04-14T22:06:28.798Z,100.00
2023-04-14T22:09:00.539Z,100.00
2023-04-14T22:11:32.566Z,100.00
2023-04-14T22:14:04.133Z,100.00
2023-04-14T22:16:35.720Z,100.00
2023-04-14T22:19:07.246Z,100.00
2023-04-14T22:21:39.101Z,100.00
2023-04-14T22:24:10.553Z,100.00
2023-04-14T22:26:42.038Z,100.00
2023-04-14T22:29:13.467Z,100.00
2023-04-14T22:31:47.982Z,100.00
2023-04-14T22:34:19.438Z,100.00
2023-04-14T22:36:50.980Z,100.00
2023-04-14T22:39:22.546Z,100.00
2023-04-14T22:41:54.033Z,100.00
2023-04-14T22:44:25.986Z,100.00
2023-04-14T22:46:57.450Z,100.00
2023-04-14T22:49:29.235Z,100.00
2023-04-14T22:52:00.711Z,100.00
2023-04-14T22:54:32.644Z,100.00
2023-04-14T22:57:04.105Z,100.00
2023-04-14T22:59:35.853Z,100.00
2023-04-14T23:02:07.530Z,100.00
2023-04-14T23:04:39.437Z,100.00
2023-04-14T23:07:10.922Z,100.00
2023-04-14T23:09:42.731Z,100.00
2023-04-14T23:12:14.206Z,100.00
2023-04-14T23:14:45.882Z,100.00
2023-04-14T23:17:17.360Z,100.00
2023-04-14T23:19:49.144Z,100.00
2023-04-14T23:22:20.613Z,100.00
2023-04-14T23:24:52.083Z,100.00
2023-04-14T23:27:23.545Z,100.00
2023-04-14T23:29:55.006Z,100.00
2023-04-14T23:32:26.531Z,100.00
2023-04-14T23:34:58.388Z,100.00
2023-04-14T23:37:29.864Z,100.00
2023-04-14T23:40:01.657Z,100.00
2023-04-14T23:42:33.117Z,100.00
2023-04-14T23:45:04.746Z,100.00
2023-04-14T23:47:36.242Z,100.00
2023-04-14T23:50:08.044Z,100.00
2023-04-14T23:52:39.515Z,100.00
2023-04-14T23:55:11.067Z,100.00
2023-04-14T23:57:42.522Z,100.00
